Time;durP1;ratioP1;P1;durP2;ratioP2;P2;SDS_P1;SDS_P2;PMS_P1;PMS_P2;Temp;Humidity;BMP_temperature;BMP_pressure;BME280_temperature;BME280_humidity;BME280_pressure;Samples;Min_cycle;Max_cycle;Signal;HPM_P1;HPM_P2
2023/06/15 00:00:15;;;;;;;6.17;5.57;;;14.30;99.90;;;;;;5072557;28;20236;-75
2023/06/15 00:02:42;;;;;;;7.37;5.43;;;14.20;99.90;;;;;;5072407;28;20200;-74
2023/06/15 00:05:09;;;;;;;7.30;5.53;;;14.20;99.90;;;;;;5072346;28;20204;-74
2023/06/15 00:07:36;;;;;;;6.07;5.47;;;14.10;99.90;;;;;;5072362;28;20197;-75
2023/06/15 00:10:05;;;;;;;6.50;5.90;;;14.10;99.90;;;;;;5072341;28;20615;-75
2023/06/15 00:12:32;;;;;;;6.30;5.57;;;14.10;99.90;;;;;;5072345;28;20319;-74
2023/06/15 00:14:59;;;;;;;7.07;5.70;;;14.00;99.90;;;;;;5072431;28;20193;-74
2023/06/15 00:17:26;;;;;;;6.50;5.90;;;13.90;99.90;;;;;;5072485;28;20201;-75
2023/06/15 00:19:53;;;;;;;6.20;5.70;;;14.00;99.90;;;;;;5076247;28;20208;-74
2023/06/15 00:22:20;;;;;;;6.43;5.53;;;13.90;99.90;;;;;;5076205;28;20193;-74
2023/06/15 00:24:46;;;;;;;5.83;5.33;;;13.90;99.90;;;;;;5076403;28;20197;-74
2023/06/15 00:27:14;;;;;;;6.43;5.83;;;13.80;99.90;;;;;;5076246;28;20200;-74
2023/06/15 00:29:41;;;;;;;6.73;5.47;;;13.80;99.90;;;;;;5076058;28;20280;-74
2023/06/15 00:32:08;;;;;;;6.80;5.73;;;13.70;99.90;;;;;;5075899;28;20217;-74
2023/06/15 00:34:35;;;;;;;6.10;5.57;;;13.60;99.90;;;;;;5076219;28;20250;-74
2023/06/15 00:37:01;;;;;;;7.97;6.10;;;13.60;99.90;;;;;;5076094;28;20274;-74
2023/06/15 00:39:28;;;;;;;7.77;6.17;;;13.60;99.90;;;;;;5075798;28;20602;-74
2023/06/15 00:41:55;;;;;;;6.43;5.50;;;13.60;99.90;;;;;;5075971;28;20193;-75
2023/06/15 00:44:23;;;;;;;6.33;5.73;;;13.60;99.90;;;;;;5075761;28;20228;-74
2023/06/15 00:46:49;;;;;;;6.93;6.20;;;13.50;99.90;;;;;;5075665;28;20238;-75
2023/06/15 00:49:16;;;;;;;6.60;5.70;;;13.50;99.90;;;;;;5075935;28;20224;-75
2023/06/15 00:51:43;;;;;;;6.77;5.90;;;13.40;99.90;;;;;;5075708;28;20229;-74
2023/06/15 00:54:12;;;;;;;8.23;5.67;;;13.40;99.90;;;;;;5075582;28;20561;-74
2023/06/15 00:56:39;;;;;;;6.23;5.67;;;13.30;99.90;;;;;;5075499;28;20656;-74
2023/06/15 00:59:06;;;;;;;6.10;5.50;;;13.20;99.90;;;;;;5075562;28;20564;-75
2023/06/15 01:01:34;;;;;;;6.60;5.90;;;13.20;99.90;;;;;;5075369;28;20201;-74
2023/06/15 01:04:01;;;;;;;6.87;6.20;;;13.20;99.90;;;;;;5075676;28;20201;-74
2023/06/15 01:06:31;;;;;;;7.67;5.80;;;13.20;99.90;;;;;;5075546;28;20233;-74
2023/06/15 01:09:01;;;;;;;6.80;6.20;;;13.10;99.90;;;;;;5075532;28;20232;-74
2023/06/15 01:11:28;;;;;;;6.73;6.10;;;13.10;99.90;;;;;;5075283;28;20256;-75
2023/06/15 01:13:57;;;;;;;6.57;5.97;;;13.00;99.90;;;;;;5075300;28;20750;-74
2023/06/15 01:16:28;;;;;;;6.07;5.53;;;13.00;99.90;;;;;;5075160;28;20656;-75
2023/06/15 01:18:57;;;;;;;6.47;5.93;;;12.80;99.90;;;;;;5075388;28;20201;-74
2023/06/15 01:21:27;;;;;;;6.37;5.87;;;12.70;99.90;;;;;;5075299;28;20247;-75
2023/06/15 01:24:08;;;;;;;6.73;6.03;;;12.60;99.90;;;;;;5075100;28;20197;-75
2023/06/15 01:26:38;;;;;;;6.53;5.97;;;12.60;99.90;;;;;;5075083;28;20197;-75
2023/06/15 01:29:06;;;;;;;7.47;6.20;;;12.50;99.90;;;;;;5074771;28;20205;-74
2023/06/15 01:31:33;;;;;;;7.20;6.50;;;12.40;99.90;;;;;;5075040;28;20229;-74
2023/06/15 01:34:00;;;;;;;10.33;7.10;;;12.40;99.90;;;;;;5074991;28;20197;-74
2023/06/15 01:36:27;;;;;;;7.20;6.47;;;12.50;99.90;;;;;;5074987;28;20201;-74
2023/06/15 01:38:57;;;;;;;6.93;6.33;;;12.80;99.90;;;;;;5074718;28;20196;-73
2023/06/15 01:41:25;;;;;;;8.63;6.63;;;12.60;99.90;;;;;;5074881;28;20649;-74
2023/06/15 01:43:53;;;;;;;6.27;5.63;;;12.60;99.90;;;;;;5074876;28;20560;-73
2023/06/15 01:46:22;;;;;;;7.17;6.47;;;12.70;99.90;;;;;;5074757;28;20193;-74
2023/06/15 01:48:50;;;;;;;7.07;6.10;;;12.40;99.90;;;;;;5074745;28;20254;-74
2023/06/15 01:51:18;;;;;;;7.50;6.47;;;12.40;99.90;;;;;;5074427;28;20216;-74
2023/06/15 01:53:44;;;;;;;9.00;6.40;;;12.70;99.90;;;;;;5074526;28;20306;-74
2023/06/15 01:56:11;;;;;;;7.93;6.57;;;12.40;99.90;;;;;;5074667;28;20201;-73
2023/06/15 01:58:38;;;;;;;9.07;7.40;;;12.20;99.90;;;;;;5074643;28;20197;-74
2023/06/15 02:01:06;;;;;;;7.30;6.60;;;12.50;99.90;;;;;;5074442;28;20246;-74
2023/06/15 02:03:32;;;;;;;8.63;7.63;;;12.60;99.90;;;;;;5074384;28;20201;-75
2023/06/15 02:05:59;;;;;;;7.20;6.60;;;12.50;99.90;;;;;;5074230;28;20193;-74
2023/06/15 02:08:25;;;;;;;9.50;7.30;;;12.50;99.90;;;;;;5074399;28;20255;-74
2023/06/15 02:10:52;;;;;;;8.83;6.80;;;12.50;99.90;;;;;;5074213;28;20227;-74
2023/06/15 02:13:19;;;;;;;8.90;8.00;;;12.30;99.90;;;;;;5074150;28;20228;-74
2023/06/15 02:15:45;;;;;;;8.63;7.03;;;12.00;99.90;;;;;;5074050;28;20193;-74
2023/06/15 02:18:14;;;;;;;8.50;7.67;;;11.80;99.90;;;;;;5074014;28;20212;-74
2023/06/15 02:20:41;;;;;;;8.40;7.50;;;11.70;99.90;;;;;;5073790;28;20680;-74
2023/06/15 02:23:08;;;;;;;8.63;7.83;;;11.60;99.90;;;;;;5074009;28;20201;-74
2023/06/15 02:25:35;;;;;;;9.37;8.03;;;11.50;99.90;;;;;;5073953;28;20258;-73
2023/06/15 02:28:01;;;;;;;9.27;8.37;;;11.30;99.90;;;;;;5073924;28;20223;-73
2023/06/15 02:30:28;;;;;;;8.33;7.60;;;11.30;99.90;;;;;;5073735;28;20656;-75
2023/06/15 02:32:55;;;;;;;8.90;8.10;;;11.20;99.90;;;;;;5073727;28;20779;-75
2023/06/15 02:35:23;;;;;;;8.70;7.93;;;11.10;99.90;;;;;;5073908;28;20251;-73
2023/06/15 02:37:49;;;;;;;10.40;8.40;;;11.10;99.90;;;;;;5073391;28;20599;-74
2023/06/15 02:40:16;;;;;;;8.67;7.87;;;11.00;99.90;;;;;;5072994;28;20193;-73
2023/06/15 02:42:43;;;;;;;9.00;8.20;;;10.90;99.90;;;;;;5073388;28;20736;-73
2023/06/15 02:45:10;;;;;;;8.70;7.90;;;10.90;99.90;;;;;;5073426;28;20246;-73
2023/06/15 02:47:38;;;;;;;9.00;8.17;;;10.80;99.90;;;;;;5073541;28;20211;-73
2023/06/15 02:50:05;;;;;;;9.17;8.17;;;10.90;99.90;;;;;;5073509;28;20205;-73
2023/06/15 02:52:36;;;;;;;9.97;8.37;;;10.80;99.90;;;;;;5073514;28;20197;-73
2023/06/15 02:55:03;;;;;;;9.97;8.97;;;10.90;99.90;;;;;;5073207;28;20225;-73
2023/06/15 02:57:30;;;;;;;10.83;8.30;;;11.10;99.90;;;;;;5073349;28;20197;-74
2023/06/15 02:59:57;;;;;;;9.87;8.87;;;11.10;99.90;;;;;;5073219;28;20193;-73
2023/06/15 03:02:23;;;;;;;11.00;8.97;;;11.20;99.90;;;;;;5072977;28;20224;-73
2023/06/15 03:04:50;;;;;;;12.37;8.90;;;11.20;99.90;;;;;;5073363;28;20263;-73
2023/06/15 03:07:20;;;;;;;9.53;8.63;;;11.20;99.90;;;;;;5073025;28;20660;-73
2023/06/15 03:09:48;;;;;;;10.00;8.73;;;11.10;99.90;;;;;;5073024;28;20698;-73
2023/06/15 03:12:15;;;;;;;9.60;8.60;;;11.00;99.90;;;;;;5073156;28;20547;-73
2023/06/15 03:14:44;;;;;;;9.87;8.87;;;10.90;99.90;;;;;;5072975;28;20255;-73
2023/06/15 03:17:12;;;;;;;11.13;9.37;;;10.80;99.90;;;;;;5073166;28;20227;-73
2023/06/15 03:19:40;;;;;;;11.67;9.00;;;10.70;99.90;;;;;;5073142;28;20561;-73
2023/06/15 03:22:07;;;;;;;11.20;9.23;;;10.50;99.90;;;;;;5072848;28;20228;-73
2023/06/15 03:24:34;;;;;;;11.23;9.53;;;10.50;99.90;;;;;;5072905;28;20196;-73
2023/06/15 03:27:04;;;;;;;9.70;8.70;;;10.40;99.90;;;;;;5072850;28;20270;-73
2023/06/15 03:29:36;;;;;;;9.80;8.80;;;10.40;99.90;;;;;;5072861;28;20229;-73
2023/06/15 03:32:03;;;;;;;13.07;9.60;;;10.50;99.90;;;;;;5073026;28;20192;-73
2023/06/15 03:34:30;;;;;;;12.20;10.27;;;10.40;99.90;;;;;;5072945;28;20201;-73
2023/06/15 03:36:56;;;;;;;10.00;9.00;;;10.50;99.90;;;;;;5072815;28;20607;-73
2023/06/15 03:39:23;;;;;;;11.07;9.97;;;10.50;99.90;;;;;;5072680;28;20197;-74
2023/06/15 03:41:50;;;;;;;9.93;8.97;;;10.40;99.90;;;;;;5072389;28;20217;-73
2023/06/15 03:44:18;;;;;;;10.30;9.30;;;10.40;99.90;;;;;;5072719;28;20201;-73
2023/06/15 03:46:45;;;;;;;11.27;9.60;;;10.50;99.90;;;;;;5072614;28;20216;-73
2023/06/15 03:49:13;;;;;;;9.97;8.90;;;10.40;99.90;;;;;;5072628;28;20205;-73
2023/06/15 03:51:39;;;;;;;9.47;8.67;;;10.60;99.90;;;;;;5072462;28;20193;-73
2023/06/15 03:54:06;;;;;;;9.73;8.83;;;10.80;99.90;;;;;;5072267;28;20298;-73
2023/06/15 03:56:33;;;;;;;9.80;8.83;;;10.90;99.90;;;;;;5072356;28;20231;-73
2023/06/15 03:58:59;;;;;;;11.27;8.87;;;11.00;99.90;;;;;;5072767;28;20270;-74
2023/06/15 04:01:27;;;;;;;9.83;8.93;;;11.10;99.90;;;;;;5072506;28;20242;-74
2023/06/15 04:03:55;;;;;;;9.87;8.90;;;11.10;99.90;;;;;;5072303;28;20627;-74
2023/06/15 04:06:22;;;;;;;9.80;8.77;;;11.20;99.90;;;;;;5072379;28;20204;-74
2023/06/15 04:08:49;;;;;;;10.47;9.23;;;11.30;99.90;;;;;;5072323;28;20287;-73
2023/06/15 04:11:16;;;;;;;12.00;9.00;;;11.40;99.90;;;;;;5072416;28;20199;-75
2023/06/15 04:13:42;;;;;;;9.23;8.33;;;11.50;99.90;;;;;;5072431;28;20259;-73
2023/06/15 04:16:10;;;;;;;9.50;8.37;;;11.40;99.90;;;;;;5072384;28;20281;-74
2023/06/15 04:18:38;;;;;;;10.27;8.77;;;11.60;99.90;;;;;;5072225;28;20201;-74
2023/06/15 04:21:05;;;;;;;9.20;8.40;;;11.70;99.90;;;;;;5072248;28;20201;-74
2023/06/15 04:23:31;;;;;;;9.00;8.10;;;12.00;99.90;;;;;;5072000;28;20308;-74
2023/06/15 04:26:00;;;;;;;8.77;7.77;;;12.20;99.90;;;;;;5072438;28;20209;-75
2023/06/15 04:28:26;;;;;;;9.33;7.80;;;12.30;99.90;;;;;;5072318;28;20197;-74
2023/06/15 04:31:05;;;;;;;9.57;8.57;;;12.50;99.90;;;;;;5072146;28;20201;-75
2023/06/15 04:33:32;;;;;;;9.50;7.97;;;12.80;99.90;;;;;;5072159;28;20192;-74
2023/06/15 04:36:00;;;;;;;10.20;8.17;;;13.10;99.90;;;;;;5071950;28;20197;-74
2023/06/15 04:38:28;;;;;;;8.43;7.53;;;13.30;99.90;;;;;;5072240;28;20197;-74
2023/06/15 04:40:56;;;;;;;9.23;7.90;;;13.50;99.90;;;;;;5072074;28;20213;-75
2023/06/15 04:43:22;;;;;;;10.90;7.60;;;13.80;99.90;;;;;;5072083;28;20252;-74
2023/06/15 04:45:49;;;;;;;8.30;7.33;;;14.00;99.90;;;;;;5071871;28;20706;-74
2023/06/15 04:48:17;;;;;;;8.47;7.73;;;14.10;99.90;;;;;;5071977;28;20231;-74
2023/06/15 04:50:48;;;;;;;9.20;7.73;;;14.20;99.90;;;;;;5071935;28;20205;-74
2023/06/15 04:53:17;;;;;;;8.23;7.43;;;14.40;99.90;;;;;;5071950;28;20236;-74
2023/06/15 04:55:43;;;;;;;7.67;6.97;;;14.40;99.90;;;;;;5071996;28;20219;-74
2023/06/15 04:58:10;;;;;;;9.30;7.50;;;14.60;99.90;;;;;;5071898;28;20208;-74
2023/06/15 05:00:37;;;;;;;8.57;7.77;;;14.70;99.90;;;;;;5071898;28;20673;-75
2023/06/15 05:03:04;;;;;;;8.97;8.00;;;14.90;99.90;;;;;;5071655;28;20278;-74
2023/06/15 05:05:30;;;;;;;10.47;9.30;;;15.00;99.90;;;;;;5075227;28;20613;-75
2023/06/15 05:07:57;;;;;;;8.20;7.20;;;15.10;99.90;;;;;;5075508;28;20197;-74
2023/06/15 05:10:25;;;;;;;9.03;8.13;;;15.10;99.90;;;;;;5075291;28;20632;-74
2023/06/15 05:12:52;;;;;;;8.90;8.00;;;15.20;99.90;;;;;;5075206;28;20824;-74
2023/06/15 05:15:19;;;;;;;9.57;8.57;;;15.20;99.90;;;;;;5075151;28;20203;-75
2023/06/15 05:17:45;;;;;;;12.10;8.13;;;15.30;99.90;;;;;;5075041;28;20193;-74
2023/06/15 05:20:13;;;;;;;10.53;7.53;;;15.30;99.90;;;;;;5075290;28;20201;-75
2023/06/15 05:22:40;;;;;;;9.50;7.50;;;15.30;99.90;;;;;;5075111;28;20236;-74
2023/06/15 05:25:07;;;;;;;10.57;9.50;;;15.40;99.90;;;;;;5075050;28;20247;-74
2023/06/15 05:27:36;;;;;;;11.10;9.57;;;15.40;99.90;;;;;;5074845;28;20205;-74
2023/06/15 05:30:04;;;;;;;10.23;9.23;;;15.50;99.90;;;;;;5074823;28;20197;-74
2023/06/15 05:32:34;;;;;;;8.30;7.60;;;15.60;99.90;;;;;;5074974;28;20205;-74
2023/06/15 05:35:01;;;;;;;8.83;7.93;;;15.60;99.90;;;;;;5074949;28;20606;-73
2023/06/15 05:37:28;;;;;;;8.47;7.67;;;15.70;99.90;;;;;;5074995;28;20254;-74
2023/06/15 05:39:54;;;;;;;8.40;7.63;;;15.70;99.90;;;;;;5074821;28;20227;-74
2023/06/15 05:42:21;;;;;;;8.80;7.90;;;15.70;99.90;;;;;;5074683;28;20354;-74
2023/06/15 05:44:49;;;;;;;8.97;7.77;;;15.80;99.90;;;;;;5074618;28;20227;-74
2023/06/15 05:47:15;;;;;;;8.30;7.50;;;15.90;99.90;;;;;;5074645;28;20297;-74
2023/06/15 05:49:42;;;;;;;9.17;7.73;;;15.90;99.90;;;;;;5074275;28;20787;-74
2023/06/15 05:52:09;;;;;;;8.50;7.70;;;16.00;99.90;;;;;;5074348;28;20193;-74
2023/06/15 05:54:35;;;;;;;10.32;7.38;;;16.00;99.90;;;;;;5074175;28;20290;-74
2023/06/15 05:57:03;;;;;;;8.35;7.65;;;16.10;99.90;;;;;;5074215;28;20193;-73
2023/06/15 05:59:30;;;;;;;8.77;7.97;;;16.20;99.90;;;;;;5074367;28;20200;-74
2023/06/15 06:01:58;;;;;;;9.30;8.38;;;16.20;99.90;;;;;;5073815;28;20691;-74
2023/06/15 06:04:25;;;;;;;8.55;7.85;;;16.30;99.90;;;;;;5074239;28;20282;-74
2023/06/15 06:06:51;;;;;;;9.65;7.35;;;16.40;99.90;;;;;;5073893;28;20705;-74
2023/06/15 06:09:18;;;;;;;8.80;8.00;;;16.50;99.90;;;;;;5073909;28;20197;-74
2023/06/15 06:11:47;;;;;;;11.32;6.97;;;16.70;99.90;;;;;;5073841;28;20288;-74
2023/06/15 06:14:13;;;;;;;9.20;7.60;;;16.70;99.90;;;;;;5074025;28;20201;-74
2023/06/15 06:16:40;;;;;;;9.45;7.47;;;16.70;99.90;;;;;;5074038;28;20262;-74
2023/06/15 06:19:08;;;;;;;8.48;7.68;;;16.80;99.90;;;;;;5073959;28;20262;-74
2023/06/15 06:21:35;;;;;;;7.90;7.30;;;16.90;99.90;;;;;;5073991;28;20197;-74
2023/06/15 06:24:02;;;;;;;10.75;7.93;;;17.00;99.90;;;;;;5073776;28;20220;-74
2023/06/15 06:26:29;;;;;;;9.18;7.47;;;17.00;99.90;;;;;;5073759;28;20224;-74
2023/06/15 06:28:56;;;;;;;8.45;7.43;;;17.10;99.90;;;;;;5073807;28;20205;-74
2023/06/15 06:31:23;;;;;;;8.32;7.53;;;17.20;99.90;;;;;;5073736;28;20251;-74
2023/06/15 06:33:50;;;;;;;8.43;7.68;;;17.30;99.90;;;;;;5073758;28;20200;-74
2023/06/15 06:36:17;;;;;;;8.18;7.38;;;17.30;99.90;;;;;;5073623;28;20236;-75
2023/06/15 06:38:44;;;;;;;8.07;7.18;;;17.40;99.90;;;;;;5073466;28;20197;-75
2023/06/15 06:41:11;;;;;;;7.50;6.80;;;17.50;99.90;;;;;;5073701;28;20223;-74
2023/06/15 06:43:37;;;;;;;8.10;7.10;;;17.50;99.90;;;;;;5073445;28;20259;-73
2023/06/15 06:46:04;;;;;;;7.82;6.97;;;17.60;99.90;;;;;;5073518;28;20201;-73
2023/06/15 06:48:31;;;;;;;8.23;7.53;;;17.70;99.90;;;;;;5073416;28;20194;-72
2023/06/15 06:50:57;;;;;;;8.15;7.35;;;17.70;99.90;;;;;;5073112;28;20207;-73
2023/06/15 06:53:26;;;;;;;7.53;6.82;;;17.90;99.90;;;;;;5072533;28;20580;-73
2023/06/15 06:55:52;;;;;;;8.05;7.35;;;17.90;99.90;;;;;;5073532;28;20193;-71
2023/06/15 06:58:20;;;;;;;8.13;7.32;;;18.00;99.90;;;;;;5073475;28;20200;-72
2023/06/15 07:00:46;;;;;;;8.20;7.40;;;18.20;99.90;;;;;;5073285;28;20599;-72
2023/06/15 07:03:13;;;;;;;7.65;7.03;;;18.20;99.90;;;;;;5073098;28;20221;-72
2023/06/15 07:05:40;;;;;;;7.80;7.10;;;18.30;99.90;;;;;;5073145;28;20197;-72
2023/06/15 07:08:06;;;;;;;7.55;6.85;;;18.30;99.40;;;;;;5072826;28;20557;-73
2023/06/15 07:10:34;;;;;;;7.32;6.60;;;18.30;99.30;;;;;;5073230;28;20193;-72
2023/06/15 07:13:02;;;;;;;8.30;7.35;;;18.20;99.20;;;;;;5073137;28;20197;-72
2023/06/15 07:15:31;;;;;;;7.72;6.75;;;18.30;97.90;;;;;;5073174;28;20232;-72
2023/06/15 07:17:57;;;;;;;9.05;7.00;;;18.50;97.20;;;;;;5073003;28;20288;-72
2023/06/15 07:20:24;;;;;;;7.43;6.72;;;18.60;96.20;;;;;;5072959;28;20197;-72
2023/06/15 07:22:51;;;;;;;9.45;7.22;;;18.70;95.40;;;;;;5073033;28;20288;-72
2023/06/15 07:25:17;;;;;;;7.78;6.95;;;18.70;94.00;;;;;;5073105;28;20193;-72
2023/06/15 07:27:45;;;;;;;7.75;6.95;;;18.80;93.20;;;;;;5072592;28;20204;-72
2023/06/15 07:30:13;;;;;;;7.60;6.80;;;18.80;93.60;;;;;;5072916;28;20278;-71
2023/06/15 07:32:40;;;;;;;7.38;6.63;;;18.80;92.90;;;;;;5072817;28;20235;-71
2023/06/15 07:35:07;;;;;;;7.28;6.57;;;19.00;92.80;;;;;;5072708;28;20247;-72
2023/06/15 07:37:33;;;;;;;6.38;5.78;;;19.00;91.60;;;;;;5072928;28;20258;-72
2023/06/15 07:40:00;;;;;;;7.22;6.47;;;19.10;91.10;;;;;;5072898;28;20200;-72
2023/06/15 07:42:27;;;;;;;7.25;6.55;;;19.20;89.80;;;;;;5072683;28;20344;-72
2023/06/15 07:44:54;;;;;;;7.18;6.47;;;19.30;89.20;;;;;;5072573;28;20236;-72
2023/06/15 07:47:21;;;;;;;7.28;6.47;;;19.40;89.80;;;;;;5072542;28;20250;-72
2023/06/15 07:49:48;;;;;;;6.15;5.50;;;19.60;88.10;;;;;;5072426;28;20265;-72
2023/06/15 07:52:14;;;;;;;6.82;5.47;;;19.70;84.50;;;;;;5072403;28;20197;-72
2023/06/15 07:54:41;;;;;;;6.47;5.88;;;19.80;79.90;;;;;;5072227;28;20236;-72
2023/06/15 07:57:08;;;;;;;7.20;5.07;;;19.80;79.50;;;;;;5072387;28;20196;-72
2023/06/15 07:59:35;;;;;;;9.85;5.60;;;20.00;78.70;;;;;;5072481;28;20248;-72
2023/06/15 08:02:03;;;;;;;6.15;5.55;;;20.20;77.90;;;;;;5072415;28;20255;-72
2023/06/15 08:04:30;;;;;;;5.88;5.30;;;20.10;78.60;;;;;;5072593;28;20227;-72
2023/06/15 08:06:56;;;;;;;6.55;5.93;;;20.40;74.70;;;;;;5072401;28;20721;-72
2023/06/15 08:09:23;;;;;;;5.82;5.32;;;20.50;75.70;;;;;;5072492;28;20193;-72
2023/06/15 08:11:50;;;;;;;6.72;6.15;;;20.70;73.90;;;;;;5072444;28;20287;-72
2023/06/15 08:14:19;;;;;;;7.10;6.22;;;20.30;73.10;;;;;;5072434;28;20205;-72
2023/06/15 08:16:45;;;;;;;8.63;6.13;;;20.50;74.30;;;;;;5072318;28;20205;-72
2023/06/15 08:19:13;;;;;;;5.25;4.75;;;20.90;71.00;;;;;;5072505;28;20196;-72
2023/06/15 08:21:41;;;;;;;5.20;4.60;;;21.30;67.70;;;;;;5072454;28;20204;-72
2023/06/15 08:24:08;;;;;;;5.65;5.00;;;21.30;64.00;;;;;;5072339;28;20230;-73
2023/06/15 08:26:34;;;;;;;5.40;4.90;;;21.40;63.90;;;;;;5072405;28;20197;-71
2023/06/15 08:29:01;;;;;;;5.97;5.47;;;21.70;63.00;;;;;;5072160;28;20714;-73
2023/06/15 08:31:29;;;;;;;6.68;5.57;;;21.60;63.00;;;;;;5072122;28;20208;-73
2023/06/15 08:33:56;;;;;;;6.28;5.68;;;21.80;64.10;;;;;;5072351;28;20197;-73
2023/06/15 08:36:24;;;;;;;5.60;5.10;;;22.00;61.40;;;;;;5072362;28;20546;-73
2023/06/15 08:38:51;;;;;;;8.73;5.10;;;22.10;61.00;;;;;;5073136;28;20204;-73
2023/06/15 08:41:18;;;;;;;6.30;5.70;;;22.20;58.80;;;;;;5076069;28;20197;-73
2023/06/15 08:43:47;;;;;;;6.20;5.60;;;22.30;58.80;;;;;;5075764;28;20286;-73
2023/06/15 08:46:14;;;;;;;6.00;5.50;;;22.20;58.30;;;;;;5076064;28;20204;-74
2023/06/15 08:48:41;;;;;;;5.03;4.63;;;22.00;56.60;;;;;;5076066;28;20196;-73
2023/06/15 08:51:12;;;;;;;5.32;4.80;;;22.30;56.70;;;;;;5075776;28;20193;-73
2023/06/15 08:53:43;;;;;;;5.70;5.28;;;22.30;55.40;;;;;;5075442;28;20723;-73
2023/06/15 08:56:12;;;;;;;7.07;5.45;;;22.60;53.40;;;;;;5075763;28;20242;-73
2023/06/15 08:58:39;;;;;;;7.90;5.35;;;22.20;54.30;;;;;;5075647;28;20284;-73
2023/06/15 09:01:07;;;;;;;6.95;5.22;;;22.00;53.70;;;;;;5075859;28;20207;-73
2023/06/15 09:03:36;;;;;;;5.88;5.28;;;21.70;54.60;;;;;;5075648;28;20229;-73
2023/06/15 09:06:03;;;;;;;7.20;5.28;;;22.20;53.20;;;;;;5075585;28;20556;-73
2023/06/15 09:08:30;;;;;;;7.53;5.63;;;21.70;52.90;;;;;;5075523;28;20197;-73
2023/06/15 09:11:08;;;;;;;6.55;5.60;;;22.60;52.50;;;;;;5075405;28;20660;-73
2023/06/15 09:13:35;;;;;;;5.85;5.30;;;23.20;51.30;;;;;;5075127;28;20197;-73
2023/06/15 09:16:05;;;;;;;6.18;5.57;;;23.50;49.70;;;;;;5075345;28;20672;-72
2023/06/15 09:18:42;;;;;;;6.25;5.65;;;23.80;49.60;;;;;;5075324;28;20208;-73
2023/06/15 09:21:12;;;;;;;6.35;5.53;;;24.00;47.80;;;;;;5075125;28;20648;-73
2023/06/15 09:23:41;;;;;;;6.13;5.38;;;24.10;46.80;;;;;;5069146;28;20279;-74
2023/06/15 09:26:10;;;;;;;6.88;5.65;;;24.50;45.70;;;;;;5071906;28;20255;-73
2023/06/15 09:28:45;;;;;;;6.20;5.50;;;24.70;45.30;;;;;;5074970;28;20204;-72
2023/06/15 09:31:27;;;;;;;5.80;5.30;;;25.00;44.80;;;;;;5075183;28;20204;-72
2023/06/15 09:34:01;;;;;;;5.68;5.18;;;24.80;45.10;;;;;;5074246;28;20592;-73
2023/06/15 09:36:27;;;;;;;7.63;5.28;;;24.90;44.20;;;;;;5075049;28;20201;-73
2023/06/15 09:38:55;;;;;;;5.80;5.30;;;25.20;42.40;;;;;;5075036;28;20254;-73
2023/06/15 09:41:23;;;;;;;5.85;5.25;;;25.40;40.10;;;;;;5075045;28;20661;-74
2023/06/15 09:43:50;;;;;;;5.28;4.88;;;24.20;39.70;;;;;;5074823;28;20278;-74
2023/06/15 09:46:19;;;;;;;5.78;5.18;;;24.60;40.80;;;;;;5074755;28;20200;-75
2023/06/15 09:48:47;;;;;;;5.30;4.90;;;25.30;38.20;;;;;;5074998;28;20200;-73
2023/06/15 09:51:15;;;;;;;5.25;4.75;;;25.70;36.90;;;;;;5074193;28;20657;-74
2023/06/15 09:53:43;;;;;;;5.60;5.10;;;25.90;35.30;;;;;;5074531;28;20247;-74
2023/06/15 09:56:11;;;;;;;5.40;4.90;;;25.90;35.30;;;;;;5074625;28;20201;-72
2023/06/15 09:58:39;;;;;;;5.28;4.78;;;25.50;35.70;;;;;;5074520;28;20200;-72
2023/06/15 10:01:08;;;;;;;7.93;5.43;;;25.70;36.10;;;;;;5074514;28;20212;-72
2023/06/15 10:03:36;;;;;;;7.47;5.18;;;26.20;35.80;;;;;;5074405;28;20603;-72
2023/06/15 10:06:09;;;;;;;4.85;4.45;;;26.70;35.00;;;;;;5074569;28;20201;-72
2023/06/15 10:08:39;;;;;;;5.28;4.72;;;27.40;34.20;;;;;;5074382;28;20201;-72
2023/06/15 10:11:06;;;;;;;5.72;5.22;;;27.80;32.90;;;;;;5074246;28;20200;-73
2023/06/15 10:13:39;;;;;;;5.60;5.10;;;25.80;34.50;;;;;;5074135;28;20227;-73
2023/06/15 10:16:12;;;;;;;5.95;5.10;;;26.70;34.00;;;;;;5074189;28;20208;-73
2023/06/15 10:18:39;;;;;;;5.38;4.88;;;27.20;33.40;;;;;;5074131;28;20288;-74
2023/06/15 10:21:12;;;;;;;4.72;4.40;;;27.80;31.10;;;;;;5074238;28;20209;-73
2023/06/15 10:23:42;;;;;;;5.70;5.20;;;28.20;30.90;;;;;;5074092;28;20270;-74
2023/06/15 10:26:09;;;;;;;6.00;5.40;;;28.10;30.20;;;;;;5073810;28;20197;-73
2023/06/15 10:28:42;;;;;;;5.50;5.00;;;27.10;31.40;;;;;;5073953;28;20200;-73
2023/06/15 10:31:17;;;;;;;5.78;5.28;;;26.80;33.40;;;;;;5074042;28;20198;-73
2023/06/15 10:33:50;;;;;;;6.10;5.53;;;28.50;31.60;;;;;;5073744;28;20205;-74
2023/06/15 10:36:23;;;;;;;5.18;4.78;;;29.60;30.30;;;;;;5073785;28;20205;-74
2023/06/15 10:38:57;;;;;;;5.72;4.95;;;30.30;29.50;;;;;;5073984;28;20660;-74
2023/06/15 10:41:24;;;;;;;5.22;4.82;;;30.60;28.70;;;;;;5073787;28;20616;-73
2023/06/15 10:43:59;;;;;;;5.30;4.90;;;29.90;29.00;;;;;;5073608;28;20599;-74
2023/06/15 10:46:31;;;;;;;5.43;4.90;;;30.50;28.10;;;;;;5073742;28;20238;-74
2023/06/15 10:49:04;;;;;;;5.57;4.82;;;30.20;27.40;;;;;;5073532;28;20274;-73
2023/06/15 10:51:33;;;;;;;6.15;4.85;;;27.60;27.20;;;;;;5073921;28;20610;-73
2023/06/15 10:54:02;;;;;;;5.60;5.13;;;27.60;28.80;;;;;;5073396;28;20229;-74
2023/06/15 10:56:29;;;;;;;5.90;5.30;;;29.70;27.60;;;;;;5073618;28;20205;-74
2023/06/15 10:58:58;;;;;;;5.65;4.93;;;30.90;26.40;;;;;;5073364;28;20246;-74
2023/06/15 11:01:26;;;;;;;5.60;5.10;;;31.10;26.20;;;;;;5072883;28;20235;-74
2023/06/15 11:03:55;;;;;;;5.40;5.00;;;32.50;24.70;;;;;;5073416;28;20202;-74
2023/06/15 11:06:22;;;;;;;5.38;4.97;;;32.80;23.10;;;;;;5073455;28;20243;-74
2023/06/15 11:08:51;;;;;;;4.82;4.43;;;33.70;22.70;;;;;;5073314;28;20200;-74
2023/06/15 11:11:22;;;;;;;5.70;4.70;;;33.50;21.40;;;;;;5073238;28;20668;-74
2023/06/15 11:14:00;;;;;;;5.18;4.78;;;34.70;20.00;;;;;;5073100;28;20204;-74
2023/06/15 11:16:29;;;;;;;5.43;4.85;;;34.90;20.10;;;;;;5073134;28;20212;-74
2023/06/15 11:18:59;;;;;;;5.40;4.90;;;35.50;19.90;;;;;;5073287;28;20204;-74
2023/06/15 11:21:28;;;;;;;5.32;4.82;;;36.20;18.70;;;;;;5073233;28;20196;-74
2023/06/15 11:23:57;;;;;;;5.07;4.50;;;37.20;17.90;;;;;;5073051;28;20196;-75
2023/06/15 11:26:28;;;;;;;5.30;4.80;;;37.20;16.50;;;;;;5073044;28;20224;-74
2023/06/15 11:28:57;;;;;;;5.28;4.63;;;36.70;16.60;;;;;;5073178;28;20193;-74
2023/06/15 11:31:24;;;;;;;5.03;4.47;;;35.30;17.20;;;;;;5073094;28;20207;-74
2023/06/15 11:33:51;;;;;;;5.28;4.78;;;36.20;16.60;;;;;;5073003;28;20200;-74
2023/06/15 11:36:19;;;;;;;4.88;4.30;;;37.00;15.90;;;;;;5072952;28;20273;-74
2023/06/15 11:38:45;;;;;;;4.85;4.32;;;37.60;15.40;;;;;;5072771;28;20720;-74
2023/06/15 11:41:12;;;;;;;4.90;4.50;;;37.40;15.40;;;;;;5073147;28;20584;-74
2023/06/15 11:43:41;;;;;;;4.95;4.38;;;38.00;14.50;;;;;;5072427;28;20185;-76
2023/06/15 11:46:12;;;;;;;6.72;4.63;;;37.80;13.80;;;;;;5072728;28;20208;-74
2023/06/15 11:48:39;;;;;;;4.85;4.47;;;32.00;16.90;;;;;;5072633;28;20283;-73
2023/06/15 11:51:08;;;;;;;5.18;4.72;;;30.40;18.70;;;;;;5072760;28;20228;-74
2023/06/15 11:53:37;;;;;;;5.70;5.20;;;28.70;19.20;;;;;;5072440;28;20282;-74
2023/06/15 11:56:08;;;;;;;5.18;4.78;;;28.00;20.80;;;;;;5072651;28;20684;-74
2023/06/15 11:58:35;;;;;;;5.10;4.68;;;29.10;20.40;;;;;;5072798;28;20204;-74
2023/06/15 12:01:04;;;;;;;7.10;6.50;;;29.40;19.90;;;;;;5072681;28;20208;-74
2023/06/15 12:03:32;;;;;;;5.78;5.28;;;29.90;20.30;;;;;;5072535;28;20604;-74
2023/06/15 12:05:59;;;;;;;5.40;4.90;;;31.20;19.70;;;;;;5072505;28;20587;-74
2023/06/15 12:08:27;;;;;;;5.25;4.78;;;33.20;18.20;;;;;;5059533;28;20193;-74
2023/06/15 12:10:56;;;;;;;6.97;4.75;;;35.30;16.60;;;;;;5052498;28;20710;-74
2023/06/15 12:13:24;;;;;;;4.90;4.50;;;36.70;14.90;;;;;;5054294;28;20201;-75
2023/06/15 12:15:51;;;;;;;7.47;4.18;;;37.00;13.90;;;;;;5056636;28;20254;-75
2023/06/15 12:18:19;;;;;;;5.15;4.75;;;37.90;13.50;;;;;;5056422;28;20204;-75
2023/06/15 12:20:46;;;;;;;4.20;3.90;;;38.10;13.20;;;;;;5056574;28;20255;-75
2023/06/15 12:23:25;;;;;;;4.65;4.32;;;38.70;12.60;;;;;;5056512;28;20243;-75
2023/06/15 12:25:55;;;;;;;5.60;4.15;;;37.90;12.50;;;;;;5056594;28;20196;-75
2023/06/15 12:28:24;;;;;;;4.85;4.45;;;38.50;12.20;;;;;;5056287;28;20691;-75
2023/06/15 12:30:51;;;;;;;4.50;4.10;;;37.50;11.70;;;;;;5056277;28;20239;-74
2023/06/15 12:33:25;;;;;;;4.53;4.22;;;36.30;12.20;;;;;;5056021;28;20227;-75
2023/06/15 12:35:54;;;;;;;4.38;3.90;;;36.40;12.40;;;;;;5056296;28;20257;-74
2023/06/15 12:38:23;;;;;;;4.93;4.10;;;36.30;12.10;;;;;;5056168;28;20231;-75
2023/06/15 12:40:50;;;;;;;4.03;3.63;;;37.70;12.40;;;;;;5056171;28;20197;-74
2023/06/15 12:43:17;;;;;;;4.35;4.05;;;38.90;11.20;;;;;;5056074;28;20193;-74
2023/06/15 12:45:45;;;;;;;4.70;4.30;;;39.30;10.80;;;;;;5056016;28;20197;-75
2023/06/15 12:48:12;;;;;;;4.57;3.90;;;39.20;10.40;;;;;;5056278;28;20250;-75